Time;durP1;ratioP1;P1;durP2;ratioP2;P2;SDS_P1;SDS_P2;PMS_P1;PMS_P2;Temp;Humidity;BMP_temperature;BMP_pressure;BME280_temperature;BME280_humidity;BME280_pressure;Samples;Min_cycle;Max_cycle;Signal;HPM_P1;HPM_P2
2022/07/21 00:00:28;;;;;;;;;;;;;;;28.93;38.67;100747.53;104948;1306;61275;-81
2022/07/21 00:02:54;;;;;;;;;;;;;;;28.92;38.79;100743.77;104834;1306;61369;-81
2022/07/21 00:05:19;;;;;;;;;;;;;;;28.93;38.69;100742.84;104889;1306;61243;-81
2022/07/21 00:07:45;;;;;;;;;;;;;;;28.92;38.72;100742.89;104958;1306;61355;-82
2022/07/21 00:10:11;;;;;;;;;;;;;;;28.92;38.82;100747.05;104867;1306;61284;-82
2022/07/21 00:12:36;;;;;;;;;;;;;;;28.92;38.71;100746.35;104942;1306;61669;-82
2022/07/21 00:15:02;;;;;;;;;;;;;;;28.92;38.81;100745.98;104954;1306;61278;-81
2022/07/21 00:17:28;;;;;;;;;;;;;;;28.92;38.61;100748.36;104667;1306;61287;-82
2022/07/21 00:19:54;;;;;;;;;;;;;;;28.92;38.77;100748.70;104934;1305;61326;-82
2022/07/21 00:22:19;;;;;;;;;;;;;;;28.92;38.77;100745.98;104979;1305;61465;-81
2022/07/21 00:24:44;;;;;;;;;;;;;;;28.91;38.94;100750.56;104808;1304;61255;-82
2022/07/21 00:27:10;;;;;;;;;;;;;;;28.92;38.82;100751.80;104953;1303;61257;-82
2022/07/21 00:29:35;;;;;;;;;;;;;;;28.92;38.99;100753.25;104912;1305;61244;-82
2022/07/21 00:32:03;;;;;;;;;;;;;;;28.91;38.93;100752.02;104821;1305;61287;-82
2022/07/21 00:34:29;;;;;;;;;;;;;;;28.92;38.85;100750.20;104892;1305;61247;-82
2022/07/21 00:36:55;;;;;;;;;;;;;;;28.92;38.73;100750.53;104861;1305;61365;-82
2022/07/21 00:39:20;;;;;;;;;;;;;;;28.91;38.80;100749.17;104841;1306;61295;-82
2022/07/21 00:41:46;;;;;;;;;;;;;;;28.91;38.82;100749.85;104869;1306;61278;-82
2022/07/21 00:44:19;;;;;;;;;;;;;;;28.91;38.82;100748.08;104808;1306;73688;-82
2022/07/21 00:46:44;;;;;;;;;;;;;;;28.91;39.02;100746.80;104844;1306;61173;-82
2022/07/21 00:49:10;;;;;;;;;;;;;;;28.91;38.77;100746.13;104831;1306;61267;-82
2022/07/21 00:51:35;;;;;;;;;;;;;;;28.91;39.04;100747.21;104937;1305;61214;-81
2022/07/21 00:54:00;;;;;;;;;;;;;;;28.91;38.88;100740.89;104683;1306;61359;-81
2022/07/21 00:56:27;;;;;;;;;;;;;;;28.91;38.89;100740.11;104933;1306;61294;-82
2022/07/21 00:58:52;;;;;;;;;;;;;;;28.91;38.80;100738.73;104858;1306;61272;-82
2022/07/21 01:01:17;;;;;;;;;;;;;;;28.90;38.87;100737.83;104855;1306;61365;-81
2022/07/21 01:03:43;;;;;;;;;;;;;;;28.91;38.97;100734.88;104837;1306;61592;-81
2022/07/21 01:06:08;;;;;;;;;;;;;;;28.90;38.91;100729.51;104832;1306;61288;-82
2022/07/21 01:08:34;;;;;;;;;;;;;;;28.90;38.76;100734.20;104800;1306;62459;-82
2022/07/21 01:11:00;;;;;;;;;;;;;;;28.90;38.67;100730.22;104854;1306;61266;-82
2022/07/21 01:13:25;;;;;;;;;;;;;;;28.90;38.94;100729.67;104862;1306;61319;-82
2022/07/21 01:15:51;;;;;;;;;;;;;;;28.90;39.10;100727.88;104841;1305;61163;-82
2022/07/21 01:18:16;;;;;;;;;;;;;;;28.90;38.98;100729.70;104959;1306;61268;-81
2022/07/21 01:20:42;;;;;;;;;;;;;;;28.90;38.67;100728.79;104801;1306;61292;-82
2022/07/21 01:23:07;;;;;;;;;;;;;;;28.90;38.92;100732.80;104937;1306;61290;-82
2022/07/21 01:25:33;;;;;;;;;;;;;;;28.90;38.67;100738.27;104906;1306;61291;-82
2022/07/21 01:27:58;;;;;;;;;;;;;;;28.90;38.99;100740.10;104795;1306;61385;-82
2022/07/21 01:30:24;;;;;;;;;;;;;;;28.89;38.68;100737.58;104802;1306;61469;-82
2022/07/21 01:32:49;;;;;;;;;;;;;;;28.89;38.97;100738.63;104910;1304;61403;-82
2022/07/21 01:35:15;;;;;;;;;;;;;;;28.90;38.91;100739.52;104961;1305;61255;-82
2022/07/21 01:37:41;;;;;;;;;;;;;;;28.90;38.89;100739.92;104798;1306;61234;-82
2022/07/21 01:42:52;;;;;;;;;;;;;;;28.89;38.93;100744.46;104853;1305;75897;-81
2022/07/21 01:45:18;;;;;;;;;;;;;;;28.89;39.04;100743.55;104897;1306;61355;-82
2022/07/21 01:47:43;;;;;;;;;;;;;;;28.89;38.94;100740.86;104883;1305;61254;-82
2022/07/21 01:50:10;;;;;;;;;;;;;;;28.89;39.01;100738.88;104853;1305;61281;-82
2022/07/21 01:52:35;;;;;;;;;;;;;;;28.89;39.18;100738.12;104878;1305;61274;-82
2022/07/21 01:55:01;;;;;;;;;;;;;;;28.89;39.16;100736.73;104905;1305;61239;-82
2022/07/21 01:57:27;;;;;;;;;;;;;;;28.89;39.09;100736.48;104968;1306;61255;-82
2022/07/21 01:59:52;;;;;;;;;;;;;;;28.89;39.13;100732.34;104946;1305;61609;-82
2022/07/21 02:02:20;;;;;;;;;;;;;;;28.89;38.99;100730.96;104921;1305;61310;-82
2022/07/21 02:04:47;;;;;;;;;;;;;;;28.89;39.14;100733.13;104941;1306;73826;-82
2022/07/21 02:07:13;;;;;;;;;;;;;;;28.88;39.16;100731.36;104870;1306;61237;-82
2022/07/21 02:09:39;;;;;;;;;;;;;;;28.89;39.25;100730.95;104933;1305;61250;-82
2022/07/21 02:12:04;;;;;;;;;;;;;;;28.88;39.21;100731.23;104899;1306;61259;-82
2022/07/21 02:14:30;;;;;;;;;;;;;;;28.88;39.02;100730.11;104896;1304;61276;-82
2022/07/21 02:16:55;;;;;;;;;;;;;;;28.88;39.10;100730.83;104818;1306;61281;-82
2022/07/21 02:19:21;;;;;;;;;;;;;;;28.88;39.22;100732.15;104655;1308;61476;-82
2022/07/21 02:21:47;;;;;;;;;;;;;;;28.87;39.07;100733.98;104643;1309;61288;-82
2022/07/21 02:24:12;;;;;;;;;;;;;;;28.88;39.05;100738.10;104728;1309;61378;-82
2022/07/21 02:26:38;;;;;;;;;;;;;;;28.88;39.15;100735.72;104636;1306;61521;-82
2022/07/21 02:29:04;;;;;;;;;;;;;;;28.88;39.34;100739.41;104593;1306;61380;-82
2022/07/21 02:31:30;;;;;;;;;;;;;;;28.87;39.25;100739.45;104823;1306;61428;-82
2022/07/21 02:33:55;;;;;;;;;;;;;;;28.87;39.05;100741.45;104614;1309;61307;-82
2022/07/21 02:36:22;;;;;;;;;;;;;;;28.87;39.46;100739.98;104629;1306;73743;-82
2022/07/21 02:38:47;;;;;;;;;;;;;;;28.87;39.39;100739.81;104610;1306;61259;-83
2022/07/21 02:41:12;;;;;;;;;;;;;;;28.87;39.19;100744.16;104583;1306;61289;-82
2022/07/21 02:43:38;;;;;;;;;;;;;;;28.87;39.32;100747.80;104601;1309;61518;-82
2022/07/21 02:46:04;;;;;;;;;;;;;;;28.87;39.40;100749.09;104621;1309;61393;-82
2022/07/21 02:48:29;;;;;;;;;;;;;;;28.87;39.28;100751.10;104777;1304;73875;-83
2022/07/21 02:50:55;;;;;;;;;;;;;;;28.87;39.36;100749.80;104898;1306;61987;-83
2022/07/21 02:53:22;;;;;;;;;;;;;;;28.86;39.39;100751.50;104957;1305;61287;-83
2022/07/21 02:55:48;;;;;;;;;;;;;;;28.87;39.28;100756.73;104922;1306;61291;-82
2022/07/21 02:58:15;;;;;;;;;;;;;;;28.87;39.13;100762.00;104916;1306;61257;-82
2022/07/21 03:00:42;;;;;;;;;;;;;;;28.86;39.28;100767.97;104949;1306;61299;-82
2022/07/21 03:03:08;;;;;;;;;;;;;;;28.86;39.17;100766.17;104951;1306;61281;-82
2022/07/21 03:05:34;;;;;;;;;;;;;;;28.86;39.33;100767.42;104898;1306;61377;-82
2022/07/21 03:07:59;;;;;;;;;;;;;;;28.86;39.34;100766.88;104928;1306;61262;-83
2022/07/21 03:10:24;;;;;;;;;;;;;;;28.87;39.37;100767.94;104844;1306;61473;-83
2022/07/21 03:12:50;;;;;;;;;;;;;;;28.86;39.40;100769.98;104949;1306;61320;-83
2022/07/21 03:15:15;;;;;;;;;;;;;;;28.87;39.17;100771.37;104953;1305;61227;-83
2022/07/21 03:17:41;;;;;;;;;;;;;;;28.86;39.45;100775.78;104972;1306;61381;-83
2022/07/21 03:20:06;;;;;;;;;;;;;;;28.87;39.54;100777.72;104933;1306;61377;-83
2022/07/21 03:22:32;;;;;;;;;;;;;;;28.87;39.39;100778.09;104879;1306;61292;-83
2022/07/21 03:24:57;;;;;;;;;;;;;;;28.87;39.29;100781.53;104952;1305;61298;-83
2022/07/21 03:27:24;;;;;;;;;;;;;;;28.87;39.45;100780.03;104890;1304;61153;-83
2022/07/21 03:29:49;;;;;;;;;;;;;;;28.87;39.42;100780.23;104912;1306;61348;-83
2022/07/21 03:32:14;;;;;;;;;;;;;;;28.87;39.35;100781.88;104897;1306;61445;-83
2022/07/21 03:34:40;;;;;;;;;;;;;;;28.87;39.31;100786.71;104684;1306;61366;-83
2022/07/21 03:37:05;;;;;;;;;;;;;;;28.87;39.33;100790.77;104966;1306;61399;-83
2022/07/21 03:39:31;;;;;;;;;;;;;;;28.87;39.50;100792.35;104907;1306;61432;-82
2022/07/21 03:41:56;;;;;;;;;;;;;;;28.87;39.29;100796.16;104883;1306;61284;-82
2022/07/21 03:44:22;;;;;;;;;;;;;;;28.87;39.43;100798.34;104892;1304;61268;-82
2022/07/21 03:46:47;;;;;;;;;;;;;;;28.87;39.36;100798.30;104910;1306;61286;-82
2022/07/21 03:49:13;;;;;;;;;;;;;;;28.88;39.61;100798.98;104869;1306;61415;-82
2022/07/21 03:51:38;;;;;;;;;;;;;;;28.87;39.41;100799.41;104904;1306;61400;-82
2022/07/21 03:54:04;;;;;;;;;;;;;;;28.87;39.46;100800.64;104846;1306;61214;-83
2022/07/21 03:56:29;;;;;;;;;;;;;;;28.88;39.23;100802.06;104913;1305;61355;-82
2022/07/21 03:58:54;;;;;;;;;;;;;;;28.88;39.59;100805.49;104892;1306;61317;-83
2022/07/21 04:01:20;;;;;;;;;;;;;;;28.88;39.48;100807.09;104930;1306;61257;-83
2022/07/21 04:03:45;;;;;;;;;;;;;;;28.88;39.67;100805.30;104888;1306;61255;-83
2022/07/21 04:06:11;;;;;;;;;;;;;;;28.88;39.48;100805.47;104873;1306;61288;-83
2022/07/21 04:08:37;;;;;;;;;;;;;;;28.88;39.35;100802.98;104845;1306;61256;-83
2022/07/21 04:11:03;;;;;;;;;;;;;;;28.88;39.56;100807.64;104883;1305;61268;-83
2022/07/21 04:13:28;;;;;;;;;;;;;;;28.88;39.38;100807.67;104942;1304;61397;-83
2022/07/21 04:15:53;;;;;;;;;;;;;;;28.88;39.39;100803.50;104930;1306;61160;-83
2022/07/21 04:18:19;;;;;;;;;;;;;;;28.88;39.43;100804.76;104898;1305;61314;-83
2022/07/21 04:20:44;;;;;;;;;;;;;;;28.88;39.36;100804.34;104814;1306;61322;-83
2022/07/21 04:23:10;;;;;;;;;;;;;;;28.89;39.42;100806.83;104781;1305;61255;-83
2022/07/21 04:25:38;;;;;;;;;;;;;;;28.89;39.62;100808.05;104855;1306;61284;-83
2022/07/21 04:28:04;;;;;;;;;;;;;;;28.90;39.36;100810.19;104633;1306;61461;-83
2022/07/21 04:30:29;;;;;;;;;;;;;;;28.90;39.30;100809.05;104671;1306;61265;-83
2022/07/21 04:32:55;;;;;;;;;;;;;;;28.90;39.51;100808.84;104811;1306;63050;-83
2022/07/21 04:35:21;;;;;;;;;;;;;;;28.90;39.55;100811.18;104790;1306;61374;-83
2022/07/21 04:37:46;;;;;;;;;;;;;;;28.91;39.43;100810.78;104673;1307;61316;-83
2022/07/21 04:40:12;;;;;;;;;;;;;;;28.91;39.56;100810.21;104866;1306;61291;-83
2022/07/21 04:42:37;;;;;;;;;;;;;;;28.91;39.47;100815.07;104660;1306;61374;-83
2022/07/21 04:45:03;;;;;;;;;;;;;;;28.92;39.48;100816.46;104842;1306;61293;-83
2022/07/21 04:47:29;;;;;;;;;;;;;;;28.92;39.50;100822.77;104670;1306;61333;-83
2022/07/21 04:49:54;;;;;;;;;;;;;;;28.93;39.44;100823.60;104791;1306;61325;-83
2022/07/21 04:52:20;;;;;;;;;;;;;;;28.93;39.43;100823.56;104595;1307;61845;-83
2022/07/21 04:54:45;;;;;;;;;;;;;;;28.93;39.54;100828.46;104701;1306;61218;-83
2022/07/21 04:57:11;;;;;;;;;;;;;;;28.94;39.68;100833.83;104745;1306;61288;-83
2022/07/21 04:59:37;;;;;;;;;;;;;;;28.95;39.67;100838.30;104662;1304;61447;-83
2022/07/21 05:02:03;;;;;;;;;;;;;;;28.95;39.68;100839.20;104788;1306;61298;-83
2022/07/21 05:04:28;;;;;;;;;;;;;;;28.95;39.40;100843.55;104909;1306;61385;-83
2022/07/21 05:06:54;;;;;;;;;;;;;;;28.96;39.49;100841.45;104927;1305;61280;-83
2022/07/21 05:09:19;;;;;;;;;;;;;;;28.97;39.59;100843.16;104921;1306;61275;-83
2022/07/21 05:11:44;;;;;;;;;;;;;;;28.97;39.40;100847.88;104873;1305;61255;-83
2022/07/21 05:14:10;;;;;;;;;;;;;;;28.98;39.44;100848.52;104893;1305;61888;-83
2022/07/21 05:16:35;;;;;;;;;;;;;;;28.98;39.24;100852.33;104909;1306;61275;-83
2022/07/21 05:19:01;;;;;;;;;;;;;;;28.98;39.35;100854.47;104891;1306;61253;-83
2022/07/21 05:21:26;;;;;;;;;;;;;;;28.98;39.05;100851.55;104918;1306;61203;-83
2022/07/21 05:23:52;;;;;;;;;;;;;;;28.99;39.21;100850.93;104750;1306;61657;-83
2022/07/21 05:26:17;;;;;;;;;;;;;;;28.99;38.95;100855.79;104889;1306;61269;-83
2022/07/21 05:28:43;;;;;;;;;;;;;;;28.99;38.93;100858.45;104808;1306;61386;-83
2022/07/21 05:31:09;;;;;;;;;;;;;;;29.00;38.92;100857.16;104850;1304;61250;-83
2022/07/21 05:33:34;;;;;;;;;;;;;;;29.00;39.05;100856.96;104936;1306;61366;-83
2022/07/21 05:36:00;;;;;;;;;;;;;;;29.00;38.79;100859.27;104771;1306;75801;-83
2022/07/21 05:38:25;;;;;;;;;;;;;;;29.01;38.70;100865.21;104839;1306;61422;-83
2022/07/21 05:40:51;;;;;;;;;;;;;;;29.01;38.72;100864.64;104804;1305;61259;-83
2022/07/21 05:43:16;;;;;;;;;;;;;;;29.01;38.64;100869.36;104847;1306;61371;-83
2022/07/21 05:45:42;;;;;;;;;;;;;;;29.01;38.66;100870.23;104911;1306;61275;-83
2022/07/21 05:48:07;;;;;;;;;;;;;;;29.02;38.63;100870.52;104823;1305;61218;-83
2022/07/21 05:50:33;;;;;;;;;;;;;;;29.02;38.66;100871.38;104888;1305;61375;-83
2022/07/21 05:52:59;;;;;;;;;;;;;;;29.03;38.42;100874.05;104817;1306;61265;-83
2022/07/21 05:55:24;;;;;;;;;;;;;;;29.03;38.51;100871.15;104745;1306;61412;-83
2022/07/21 05:57:50;;;;;;;;;;;;;;;29.04;38.29;100875.36;104796;1306;61217;-83
2022/07/21 06:00:15;;;;;;;;;;;;;;;29.04;38.35;100876.27;104812;1306;76082;-83
2022/07/21 06:02:41;;;;;;;;;;;;;;;29.04;38.25;100876.96;104819;1306;61308;-83
2022/07/21 06:05:08;;;;;;;;;;;;;;;29.05;38.25;100872.96;104838;1305;61317;-83
2022/07/21 06:07:33;;;;;;;;;;;;;;;29.06;38.13;100875.70;104762;1306;61137;-83
2022/07/21 06:10:00;;;;;;;;;;;;;;;29.06;37.96;100874.08;104817;1305;61387;-83
2022/07/21 06:12:26;;;;;;;;;;;;;;;29.07;38.04;100873.64;104723;1305;61370;-83
2022/07/21 06:14:52;;;;;;;;;;;;;;;29.07;37.87;100872.29;104655;1306;61316;-83
2022/07/21 06:17:18;;;;;;;;;;;;;;;29.08;37.86;100872.40;104813;1306;61249;-83
2022/07/21 06:19:44;;;;;;;;;;;;;;;29.09;37.75;100872.85;104804;1306;61322;-83
2022/07/21 06:22:09;;;;;;;;;;;;;;;29.09;37.64;100873.19;104807;1305;61318;-83
2022/07/21 06:24:34;;;;;;;;;;;;;;;29.10;37.66;100873.86;104827;1305;61284;-83
2022/07/21 06:27:00;;;;;;;;;;;;;;;29.11;37.52;100877.00;104841;1306;61447;-83
2022/07/21 06:29:25;;;;;;;;;;;;;;;29.11;37.71;100875.33;103487;1306;1768961;-83
2022/07/21 06:31:51;;;;;;;;;;;;;;;29.12;37.49;100873.49;104735;1305;73852;-83
2022/07/21 06:34:16;;;;;;;;;;;;;;;29.12;37.33;100870.54;104799;1304;61252;-83
2022/07/21 06:36:42;;;;;;;;;;;;;;;29.12;37.43;100867.12;104756;1304;61263;-83
2022/07/21 06:39:07;;;;;;;;;;;;;;;29.13;37.59;100870.46;104790;1306;61385;-82
2022/07/21 06:41:33;;;;;;;;;;;;;;;29.13;37.19;100868.48;104766;1306;61415;-83
2022/07/21 06:43:58;;;;;;;;;;;;;;;29.14;37.24;100867.81;104740;1306;61422;-83
2022/07/21 06:46:24;;;;;;;;;;;;;;;29.14;36.92;100863.25;104778;1305;61321;-83
2022/07/21 06:48:49;;;;;;;;;;;;;;;29.15;37.14;100865.20;104877;1306;61313;-83
2022/07/21 06:51:15;;;;;;;;;;;;;;;29.15;36.92;100864.48;104864;1304;61348;-83
2022/07/21 06:53:42;;;;;;;;;;;;;;;29.15;36.89;100861.54;104926;1306;61284;-83
2022/07/21 06:56:07;;;;;;;;;;;;;;;29.15;36.87;100858.81;104847;1306;73726;-83
2022/07/21 06:58:34;;;;;;;;;;;;;;;29.16;36.92;100858.75;104866;1305;61333;-83
2022/07/21 07:00:59;;;;;;;;;;;;;;;29.16;36.80;100852.56;104841;1306;61222;-83
2022/07/21 07:03:25;;;;;;;;;;;;;;;29.16;36.46;100854.71;104841;1306;62003;-83
2022/07/21 07:05:50;;;;;;;;;;;;;;;29.17;36.70;100851.20;104865;1306;61310;-83
2022/07/21 07:08:16;;;;;;;;;;;;;;;29.17;36.47;100850.87;104856;1306;61137;-83
2022/07/21 07:10:42;;;;;;;;;;;;;;;29.17;36.49;100847.23;104920;1306;61304;-83
2022/07/21 07:13:08;;;;;;;;;;;;;;;29.17;36.39;100846.27;104811;1306;61259;-82
2022/07/21 07:15:33;;;;;;;;;;;;;;;29.17;36.55;100846.45;104779;1306;61428;-83
2022/07/21 07:17:58;;;;;;;;;;;;;;;29.17;36.48;100848.41;104724;1306;61285;-83
2022/07/21 07:20:24;;;;;;;;;;;;;;;29.17;36.48;100844.07;104848;1306;61340;-83
2022/07/21 07:22:49;;;;;;;;;;;;;;;29.18;36.27;100838.05;104909;1306;61227;-81
2022/07/21 07:25:18;;;;;;;;;;;;;;;29.18;36.44;100837.86;104911;1306;61344;-81
2022/07/21 07:27:47;;;;;;;;;;;;;;;29.18;36.31;100843.09;104694;1306;61633;-82
2022/07/21 07:30:12;;;;;;;;;;;;;;;29.19;36.39;100843.60;104894;1306;73681;-81
2022/07/21 07:32:39;;;;;;;;;;;;;;;29.17;36.27;100844.98;104886;1304;61275;-81
2022/07/21 07:35:05;;;;;;;;;;;;;;;29.16;36.28;100837.89;104893;1306;61192;-81
2022/07/21 07:37:31;;;;;;;;;;;;;;;29.16;36.27;100841.73;104805;1306;61326;-81
2022/07/21 07:39:56;;;;;;;;;;;;;;;29.15;36.15;100837.50;104822;1306;61352;-81
2022/07/21 07:42:22;;;;;;;;;;;;;;;29.14;36.05;100840.26;104858;1306;61316;-81
2022/07/21 07:44:48;;;;;;;;;;;;;;;29.14;36.05;100838.48;104798;1305;61320;-81
2022/07/21 07:47:14;;;;;;;;;;;;;;;29.13;36.01;100840.55;104881;1306;61254;-81
2022/07/21 07:49:39;;;;;;;;;;;;;;;29.12;35.95;100841.35;104794;1306;61268;-81
2022/07/21 07:52:05;;;;;;;;;;;;;;;29.12;35.94;100844.45;104773;1304;61222;-81
2022/07/21 07:54:31;;;;;;;;;;;;;;;29.12;35.94;100838.84;104869;1306;61348;-82
2022/07/21 07:56:56;;;;;;;;;;;;;;;29.12;35.81;100840.16;104780;1306;61387;-81
2022/07/21 07:59:22;;;;;;;;;;;;;;;29.12;35.94;100845.23;104619;1306;61336;-81
2022/07/21 08:01:47;;;;;;;;;;;;;;;29.11;35.92;100849.27;104927;1306;59301;-81
2022/07/21 08:04:14;;;;;;;;;;;;;;;29.11;35.59;100850.02;104847;1306;61281;-81
2022/07/21 08:06:40;;;;;;;;;;;;;;;29.10;35.73;100844.99;104798;1306;75768;-81
2022/07/21 08:09:07;;;;;;;;;;;;;;;29.10;35.65;100845.91;104880;1306;61192;-82
2022/07/21 08:11:32;;;;;;;;;;;;;;;29.10;35.69;100841.23;104844;1305;61292;-81
2022/07/21 08:13:58;;;;;;;;;;;;;;;29.09;35.66;100841.67;104648;1306;61396;-81
2022/07/21 08:16:23;;;;;;;;;;;;;;;29.09;35.65;100839.52;104671;1306;61959;-81
2022/07/21 08:18:49;;;;;;;;;;;;;;;29.09;35.74;100842.58;104806;1306;59354;-81
2022/07/21 08:21:14;;;;;;;;;;;;;;;29.09;35.54;100835.86;104827;1306;61214;-82
2022/07/21 08:23:40;;;;;;;;;;;;;;;29.10;35.72;100836.52;104938;1306;61297;-82
2022/07/21 08:26:05;;;;;;;;;;;;;;;29.10;35.70;100837.75;104800;1306;61277;-82
2022/07/21 08:28:31;;;;;;;;;;;;;;;29.10;35.54;100829.64;104802;1305;61319;-82
2022/07/21 08:30:56;;;;;;;;;;;;;;;29.10;35.51;100831.40;104871;1306;61252;-82
2022/07/21 08:33:22;;;;;;;;;;;;;;;29.10;35.40;100832.73;104867;1306;61351;-81
2022/07/21 08:35:47;;;;;;;;;;;;;;;29.10;35.55;100828.34;104873;1304;61326;-82
2022/07/21 08:38:13;;;;;;;;;;;;;;;29.11;35.64;100828.83;104739;1305;59461;-82
2022/07/21 08:40:39;;;;;;;;;;;;;;;29.10;35.58;100827.77;104739;1305;61686;-82
2022/07/21 08:43:06;;;;;;;;;;;;;;;29.11;35.26;100824.45;104883;1305;61351;-82
2022/07/21 08:45:32;;;;;;;;;;;;;;;29.12;35.37;100825.13;104838;1306;61230;-82
2022/07/21 08:47:58;;;;;;;;;;;;;;;29.12;35.39;100831.79;104883;1306;61281;-82
2022/07/21 08:50:24;;;;;;;;;;;;;;;29.12;35.24;100835.55;104795;1306;61398;-82
2022/07/21 08:52:49;;;;;;;;;;;;;;;29.12;35.20;100827.83;104829;1306;74802;-83
2022/07/21 08:55:15;;;;;;;;;;;;;;;29.12;35.44;100827.64;104677;1304;61297;-81
2022/07/21 08:57:40;;;;;;;;;;;;;;;29.12;35.36;100823.05;104687;1306;61263;-82
2022/07/21 09:00:07;;;;;;;;;;;;;;;29.12;35.32;100816.89;104753;1306;61333;-83
2022/07/21 09:02:33;;;;;;;;;;;;;;;29.13;35.42;100815.55;104798;1306;61195;-83
2022/07/21 09:04:59;;;;;;;;;;;;;;;29.14;35.33;100825.77;104833;1306;61713;-83
2022/07/21 09:07:25;;;;;;;;;;;;;;;29.14;35.35;100821.80;104863;1306;61368;-83
2022/07/21 09:10:00;;;;;;;;;;;;;;;29.14;35.21;100822.01;104644;1306;60387;-83
2022/07/21 09:12:26;;;;;;;;;;;;;;;29.14;35.17;100820.14;105186;1306;71931;-83
2022/07/21 09:14:52;;;;;;;;;;;;;;;29.14;35.34;100818.89;104735;1306;61256;-83
2022/07/21 09:17:18;;;;;;;;;;;;;;;29.14;35.16;100815.21;104757;1306;61291;-83
2022/07/21 09:19:45;;;;;;;;;;;;;;;29.15;35.28;100820.05;104843;1305;61340;-83
2022/07/21 09:22:12;;;;;;;;;;;;;;;29.16;35.29;100821.20;104796;1306;61310;-83
2022/07/21 09:24:38;;;;;;;;;;;;;;;29.16;35.14;100816.83;104702;1305;61297;-83
2022/07/21 09:27:03;;;;;;;;;;;;;;;29.16;35.17;100821.00;104788;1305;61249;-83
2022/07/21 09:29:38;;;;;;;;;;;;;;;29.17;35.11;100812.65;104860;1306;61301;-83
2022/07/21 09:32:16;;;;;;;;;;;;;;;29.17;35.30;100808.98;104738;1304;73680;-83
2022/07/21 09:34:42;;;;;;;;;;;;;;;29.17;35.24;100806.77;104868;1306;74840;-83
2022/07/21 09:37:07;;;;;;;;;;;;;;;29.17;35.21;100797.89;104769;1306;61239;-82
2022/07/21 09:39:45;;;;;;;;;;;;;;;29.18;35.22;100799.47;104767;1306;61269;-83
2022/07/21 09:42:14;;;;;;;;;;;;;;;29.17;35.26;100796.98;104849;1306;73554;-83
2022/07/21 09:44:44;;;;;;;;;;;;;;;29.18;35.18;100795.65;104747;1304;75731;-83
2022/07/21 09:47:12;;;;;;;;;;;;;;;29.18;35.30;100797.63;104858;1305;61291;-83
2022/07/21 09:49:38;;;;;;;;;;;;;;;29.18;35.23;100794.20;104891;1306;61391;-83
2022/07/21 09:52:17;;;;;;;;;;;;;;;29.18;35.34;100791.43;104754;1306;61623;-83
2022/07/21 09:54:42;;;;;;;;;;;;;;;29.18;35.12;100796.88;104768;1306;74765;-83
2022/07/21 09:57:09;;;;;;;;;;;;;;;29.18;35.20;100790.86;104834;1306;61293;-83
2022/07/21 09:59:34;;;;;;;;;;;;;;;29.18;35.19;100793.08;104850;1306;61371;-83
2022/07/21 10:01:59;;;;;;;;;;;;;;;29.18;35.09;100793.96;104805;1306;61271;-83
2022/07/21 10:04:25;;;;;;;;;;;;;;;29.19;35.11;100790.11;104834;1306;61311;-82
2022/07/21 10:06:51;;;;;;;;;;;;;;;29.19;35.18;100787.02;104819;1305;62471;-82
2022/07/21 10:09:16;;;;;;;;;;;;;;;29.19;35.10;100791.17;104822;1306;61245;-82
2022/07/21 10:11:42;;;;;;;;;;;;;;;29.19;35.40;100792.12;104840;1306;61254;-82
2022/07/21 10:14:11;;;;;;;;;;;;;;;29.19;35.12;100795.55;104799;1305;61432;-83
2022/07/21 10:16:36;;;;;;;;;;;;;;;29.18;35.27;100793.75;104770;1306;76838;-83
2022/07/21 10:19:04;;;;;;;;;;;;;;;29.19;35.12;100796.09;104807;1305;61223;-83
2022/07/21 10:21:36;;;;;;;;;;;;;;;29.19;35.09;100792.40;104778;1304;61281;-81
2022/07/21 10:24:02;;;;;;;;;;;;;;;29.20;35.22;100790.92;104799;1306;74495;-81
2022/07/21 10:26:27;;;;;;;;;;;;;;;29.19;35.42;100786.97;104654;1304;61288;-82
2022/07/21 10:28:53;;;;;;;;;;;;;;;29.19;35.12;100786.08;104750;1306;61237;-82
2022/07/21 10:31:23;;;;;;;;;;;;;;;29.19;35.07;100779.73;104673;1306;61358;-82
2022/07/21 10:33:49;;;;;;;;;;;;;;;29.19;35.11;100777.52;104757;1305;73728;-82
2022/07/21 10:36:26;;;;;;;;;;;;;;;29.20;35.01;100781.13;104749;1306;61460;-82
2022/07/21 10:39:04;;;;;;;;;;;;;;;29.21;35.14;100785.89;104794;1306;61272;-83
2022/07/21 10:41:39;;;;;;;;;;;;;;;29.21;35.25;100779.15;104809;1305;61269;-83
2022/07/21 10:44:23;;;;;;;;;;;;;;;29.21;35.28;100786.09;104800;1306;72745;-82
2022/07/21 10:47:13;;;;;;;;;;;;;;;29.20;35.10;100786.34;104828;1305;74624;-82
2022/07/21 10:49:46;;;;;;;;;;;;;;;29.20;35.52;100782.76;104697;1306;61332;-82
2022/07/21 10:52:30;;;;;;;;;;;;;;;29.20;35.10;100775.29;104675;1305;61515;-82
2022/07/21 10:55:24;;;;;;;;;;;;;;;29.20;35.23;100776.58;104805;1306;74019;-81
2022/07/21 10:58:08;;;;;;;;;;;;;;;29.20;35.23;100773.65;104790;1306;74840;-81
2022/07/21 11:00:35;;;;;;;;;;;;;;;29.20;35.26;100776.18;104821;1306;61111;-81
2022/07/21 11:03:01;;;;;;;;;;;;;;;29.20;35.18;100772.54;104794;1306;61388;-81
2022/07/21 11:05:27;;;;;;;;;;;;;;;29.21;35.35;100770.15;104778;1306;61330;-81
2022/07/21 11:08:10;;;;;;;;;;;;;;;29.21;35.41;100769.54;104901;1306;61268;-81
2022/07/21 11:10:41;;;;;;;;;;;;;;;29.21;35.21;100763.94;104903;1305;61382;-81
2022/07/21 11:13:07;;;;;;;;;;;;;;;29.22;35.15;100763.12;104973;1305;61561;-82
2022/07/21 11:15:45;;;;;;;;;;;;;;;29.22;35.05;100759.86;104922;1304;59373;-82
2022/07/21 11:18:11;;;;;;;;;;;;;;;29.23;35.42;100755.63;105330;1306;75865;-82
2022/07/21 11:20:37;;;;;;;;;;;;;;;29.23;35.23;100758.06;104950;1305;61362;-82
2022/07/21 11:23:03;;;;;;;;;;;;;;;29.24;35.34;100753.61;104879;1306;61191;-81
2022/07/21 11:25:29;;;;;;;;;;;;;;;29.25;35.37;100751.41;104836;1306;61295;-81
2022/07/21 11:27:54;;;;;;;;;;;;;;;29.26;35.29;100754.77;104867;1306;61355;-81
2022/07/21 11:30:19;;;;;;;;;;;;;;;29.25;35.29;100754.25;104886;1306;61270;-81
2022/07/21 11:32:48;;;;;;;;;;;;;;;29.26;35.55;100748.39;104897;1304;61218;-81
2022/07/21 11:35:14;;;;;;;;;;;;;;;29.26;35.50;100747.13;104845;1306;62668;-81
2022/07/21 11:37:40;;;;;;;;;;;;;;;29.26;35.34;100751.30;104890;1306;61362;-81
2022/07/21 11:40:11;;;;;;;;;;;;;;;29.26;35.45;100743.11;104845;1306;61982;-81
2022/07/21 11:42:37;;;;;;;;;;;;;;;29.26;35.49;100744.44;104700;1306;61291;-81
2022/07/21 11:45:02;;;;;;;;;;;;;;;29.27;35.45;100740.36;104822;1306;61291;-81
2022/07/21 11:47:28;;;;;;;;;;;;;;;29.26;35.60;100738.39;104669;1305;61255;-81
2022/07/21 11:49:54;;;;;;;;;;;;;;;29.26;35.37;100734.59;104831;1305;61386;-81
2022/07/21 11:52:23;;;;;;;;;;;;;;;29.27;35.41;100733.09;104865;1306;61814;-81
2022/07/21 11:54:50;;;;;;;;;;;;;;;29.27;35.44;100729.83;104860;1304;61363;-81
2022/07/21 11:57:16;;;;;;;;;;;;;;;29.27;35.65;100722.93;104676;1305;73784;-81
2022/07/21 11:59:42;;;;;;;;;;;;;;;29.27;35.60;100722.23;104869;1306;61288;-81
2022/07/21 12:02:14;;;;;;;;;;;;;;;29.27;35.55;100724.36;104917;1305;61271;-81
2022/07/21 12:04:42;;;;;;;;;;;;;;;29.28;35.49;100725.92;104852;1304;61224;-81
2022/07/21 12:07:16;;;;;;;;;;;;;;;29.28;35.58;100728.40;104852;1306;72982;-81
2022/07/21 12:09:42;;;;;;;;;;;;;;;29.29;35.78;100727.84;104866;1306;75778;-81
2022/07/21 12:12:07;;;;;;;;;;;;;;;29.29;35.64;100725.27;104891;1305;61254;-81
2022/07/21 12:14:39;;;;;;;;;;;;;;;29.30;35.65;100721.04;104855;1306;61278;-81
2022/07/21 12:17:04;;;;;;;;;;;;;;;29.30;35.70;100715.88;104846;1306;73867;-82
2022/07/21 12:19:31;;;;;;;;;;;;;;;29.31;35.83;100713.48;104839;1306;61253;-82
2022/07/21 12:21:57;;;;;;;;;;;;;;;29.31;35.66;100711.08;104856;1305;61419;-82
2022/07/21 12:24:34;;;;;;;;;;;;;;;29.31;35.82;100704.93;104823;1306;61251;-82